Alm Zurich — V7NG2 — position and weather

sailwx.info

Track history (hours):
 
Tides and Currents Weather Stations Pressure Air Temp Water Temp Dewpoint Dewpoint Depression Visibility Wind Speed Wind Dir Waves Ship Positions

Alm Zurich

Last reported at 2016-May-25 15:19 UTC. Time now 2016-May-31 12:03 UTC.
Position N 36°31' E 122°20'.

Length 294 m; draft 7 m.

Type: Cargo ship. MMSI: 538002956.

Date/timePositionNaut miles runAvg speedWind from/ knotsBaromVisibWave heightAir tempDewpointWater temp
2016-May-25 15:19N 36°31' E 122°20'7 9.3
2016-May-25 14:33N 36°36' E 122°27'9 9.0
2016-May-25 13:33N 36°44' E 122°33'8 8.2
2016-May-25 12:33N 36°52' E 122°37'8 8.0
2016-May-25 11:33N 36°59' E 122°41'8 7.9
2016-May-25 10:33N 37°06' E 122°45'8 7.9
2016-May-25 09:33N 37°14' E 122°47'9 8.7
2016-May-25 08:33N 37°22' E 122°47'9 9.1
2016-May-25 07:31N 37°31' E 122°43'9 9.7
2016-May-25 06:33N 37°39' E 122°36'10 9.5
2016-May-25 05:32N 37°48' E 122°31'54 9.0
2016-May-24 23:33N 38°37' E 122°06'16 1.3
2016-May-24 11:27N 38°50' E 121°54'1416.1
2016-May-24 10:33N 38°37' E 121°46'1413.7
2016-May-24 09:31N 38°31' E 121°30'3213.3
2016-May-24 07:08N 38°35' E 120°50'912.6
2016-May-24 06:26N 38°38' E 120°39'1112.6
2016-May-24 05:33N 38°39' E 120°24'1312.8
2016-May-24 04:33N 38°41' E 120°08'1312.9
2016-May-24 03:34N 38°41' E 119°52'1413.8
2016-May-24 02:33N 38°42' E 119°34'1413.9
2016-May-24 01:33N 38°44' E 119°17'1814.7
2016-May-24 00:18N 38°46' E 118°53'53 6.7
2016-May-23 16:23N 38°60' E 117°47'0 0.0
2016-May-23 14:11N 38°60' E 117°47'0 0.0
2016-May-23 13:17N 38°60' E 117°47'0 0.0
2016-May-23 12:23N 38°60' E 117°47'0 0.0
2016-May-23 11:23N 38°60' E 117°47'0 0.0
2016-May-23 10:29N 38°60' E 117°47'0 0.0
2016-May-23 09:11N 38°60' E 117°47'0 0.0
2016-May-23 08:29N 38°60' E 117°47'0 0.0
2016-May-23 07:29N 38°60' E 117°47'0 0.0
2016-May-23 06:17N 38°60' E 117°47'0 0.0
2016-May-23 05:29N 38°60' E 117°47'0 0.0
2016-May-23 04:23N 38°60' E 117°47'0 0.0
2016-May-23 03:17N 38°60' E 117°47'1 1.2
2016-May-23 02:33N 38°59' E 117°47'1211.5
2016-May-23 01:30N 38°56' E 118°03'8 7.9
2016-May-23 00:33N 38°54' E 118°12'4 0.4
2016-May-22 13:13N 38°54' E 118°18'0 0.0
2016-May-22 12:19N 38°54' E 118°18'80 1.6
2016-May-20 09:07N 38°43' E 119°59'1211.9
2016-May-20 08:08N 38°41' E 120°14'712.1
2016-May-20 07:33N 38°40' E 120°23'1212.0
2016-May-20 06:33N 38°38' E 120°38'1413.0
2016-May-20 05:30N 38°36' E 120°55'1414.9
2016-May-20 04:33N 38°29' E 121°11'1514.7
2016-May-20 03:33N 38°21' E 121°26'1515.2
2016-May-20 02:32N 38°12' E 121°43'3215.5
2016-May-20 00:29N 37°53' E 122°15'1515.4
2016-May-19 23:32N 37°46' E 122°31'1515.5
2016-May-19 22:33N 37°35' E 122°45'1615.8
2016-May-19 21:33N 37°20' E 122°52'1616.5
2016-May-19 20:33N 37°04' E 122°53'1616.1
2016-May-19 19:34N 36°48' E 122°56'1615.7
2016-May-19 18:34N 36°32' E 122°55'1615.5
2016-May-19 17:33N 36°17' E 122°57'1515.2
2016-May-19 16:33N 36°02' E 122°59'1515.1
2016-May-19 15:33N 35°47' E 123°01'1515.0
2016-May-19 14:32N 35°32' E 123°02'1515.1
2016-May-19 13:33N 35°17' E 123°04'23715.4
2016-May-18 22:07N 31°20' E 123°11'915.9
2016-May-18 21:33N 31°11' E 123°10'1515.4
2016-May-18 20:33N 30°56' E 123°14'4314.4
2016-May-18 17:33N 30°13' E 123°13'1515.0
2016-May-18 16:32N 29°57' E 123°12'1615.0
2016-May-18 15:30N 29°42' E 123°13'1515.6
2016-May-18 14:33N 29°28' E 123°06'1515.6
2016-May-18 13:33N 29°14' E 123°00'42214.5
2016-May-17 08:21N 22°47' E 119°53'  
Track history (hours):
 
Tides and Currents Weather Stations Pressure Air Temp Water Temp Dewpoint Dewpoint Depression Visibility Wind Speed Wind Dir Waves Ship Positions

Alm Zurich

Last reported at 2016-May-25 15:19 UTC. Time now 2016-May-31 12:03 UTC.
Position N 36°31' E 122°20'.

Length 294 m; draft 7 m.

Type: Cargo ship. MMSI: 538002956.

Date/timePositionNaut miles runAvg speedWind from/ knotsBaromVisibWave heightAir tempDewpointWater temp
2016-May-25 15:19N 36°31' E 122°20'7 9.3
2016-May-25 14:33N 36°36' E 122°27'9 9.0
2016-May-25 13:33N 36°44' E 122°33'8 8.2
2016-May-25 12:33N 36°52' E 122°37'8 8.0
2016-May-25 11:33N 36°59' E 122°41'8 7.9
2016-May-25 10:33N 37°06' E 122°45'8 7.9
2016-May-25 09:33N 37°14' E 122°47'9 8.7
2016-May-25 08:33N 37°22' E 122°47'9 9.1
2016-May-25 07:31N 37°31' E 122°43'9 9.7
2016-May-25 06:33N 37°39' E 122°36'10 9.5
2016-May-25 05:32N 37°48' E 122°31'54 9.0
2016-May-24 23:33N 38°37' E 122°06'16 1.3
2016-May-24 11:27N 38°50' E 121°54'1416.1
2016-May-24 10:33N 38°37' E 121°46'1413.7
2016-May-24 09:31N 38°31' E 121°30'3213.3
2016-May-24 07:08N 38°35' E 120°50'912.6
2016-May-24 06:26N 38°38' E 120°39'1112.6
2016-May-24 05:33N 38°39' E 120°24'1312.8
2016-May-24 04:33N 38°41' E 120°08'1312.9
2016-May-24 03:34N 38°41' E 119°52'1413.8
2016-May-24 02:33N 38°42' E 119°34'1413.9
2016-May-24 01:33N 38°44' E 119°17'1814.7
2016-May-24 00:18N 38°46' E 118°53'53 6.7
2016-May-23 16:23N 38°60' E 117°47'0 0.0
2016-May-23 14:11N 38°60' E 117°47'0 0.0
2016-May-23 13:17N 38°60' E 117°47'0 0.0
2016-May-23 12:23N 38°60' E 117°47'0 0.0
2016-May-23 11:23N 38°60' E 117°47'0 0.0
2016-May-23 10:29N 38°60' E 117°47'0 0.0
2016-May-23 09:11N 38°60' E 117°47'0 0.0
2016-May-23 08:29N 38°60' E 117°47'0 0.0
2016-May-23 07:29N 38°60' E 117°47'0 0.0
2016-May-23 06:17N 38°60' E 117°47'0 0.0
2016-May-23 05:29N 38°60' E 117°47'0 0.0
2016-May-23 04:23N 38°60' E 117°47'0 0.0
2016-May-23 03:17N 38°60' E 117°47'1 1.2
2016-May-23 02:33N 38°59' E 117°47'1211.5
2016-May-23 01:30N 38°56' E 118°03'8 7.9
2016-May-23 00:33N 38°54' E 118°12'4 0.4
2016-May-22 13:13N 38°54' E 118°18'0 0.0
2016-May-22 12:19N 38°54' E 118°18'80 1.6
2016-May-20 09:07N 38°43' E 119°59'1211.9
2016-May-20 08:08N 38°41' E 120°14'712.1
2016-May-20 07:33N 38°40' E 120°23'1212.0
2016-May-20 06:33N 38°38' E 120°38'1413.0
2016-May-20 05:30N 38°36' E 120°55'1414.9
2016-May-20 04:33N 38°29' E 121°11'1514.7
2016-May-20 03:33N 38°21' E 121°26'1515.2
2016-May-20 02:32N 38°12' E 121°43'3215.5
2016-May-20 00:29N 37°53' E 122°15'1515.4
2016-May-19 23:32N 37°46' E 122°31'1515.5
2016-May-19 22:33N 37°35' E 122°45'1615.8
2016-May-19 21:33N 37°20' E 122°52'1616.5
2016-May-19 20:33N 37°04' E 122°53'1616.1
2016-May-19 19:34N 36°48' E 122°56'1615.7
2016-May-19 18:34N 36°32' E 122°55'1615.5
2016-May-19 17:33N 36°17' E 122°57'1515.2
2016-May-19 16:33N 36°02' E 122°59'1515.1
2016-May-19 15:33N 35°47' E 123°01'1515.0
2016-May-19 14:32N 35°32' E 123°02'1515.1
2016-May-19 13:33N 35°17' E 123°04'23715.4
2016-May-18 22:07N 31°20' E 123°11'915.9
2016-May-18 21:33N 31°11' E 123°10'1515.4
2016-May-18 20:33N 30°56' E 123°14'4314.4
2016-May-18 17:33N 30°13' E 123°13'1515.0
2016-May-18 16:32N 29°57' E 123°12'1615.0
2016-May-18 15:30N 29°42' E 123°13'1515.6
2016-May-18 14:33N 29°28' E 123°06'1515.6
2016-May-18 13:33N 29°14' E 123°00'42214.5
2016-May-17 08:21N 22°47' E 119°53'  

Dump ship's entire track history